Holualoa, HI (96725)

1:53 PM HST on October 25, 2014 (GMT -1000)
Kona Palisades | Change Station
CLOSE
Current Station
Personal Weather Station
Location: Kailua-Kona, HI
Elevation: 1007 ft
Nearby Weather Stations

Elev 1007 ft 19.72 °N, 155.99 °W | Updated 9 minutes ago

Scattered Clouds
Scattered Clouds
81.0 °F
Feels Like 84 °F
N
3.0
Wind Variable Wind from SSW
Gusts 12.0 mph

Today
High -- | Low -- °F
--% Chance of Precip.
Yesterday
High -- | Low -- °F
Precip. -- in
6:21 AM 5:53 PM
Waxing Crescent, 5% visible
Pressure 29.94 in
Visibility 10.0 miles
Clouds Scattered Clouds 8000 ft
Heat Index 84 °F
Dew Point 69 °F
Humidity 68%
Rainfall 0.00 in
Snow Depth Not available.
UV 7 out of 12
Pollen Not available.
Air Quality Not available.
Flu Activity Sporadic
METAR PHKO 252253Z 24009KT 10SM SCT080 29/21 A2994 RMK AO2 SLP139 T02940206

More Conditions Fewer Conditions

Pressure 29.94 in
Visibility 10.0 miles
Clouds Scattered Clouds 8000 ft
Heat Index 84 °F
Dew Point 69 °F
Humidity 68%
Rainfall 0.00 in
Snow Depth Not available.
UV 7 out of 12
Pollen Not available.
Air Quality Not available.
Flu Activity Sporadic
METAR PHKO 252253Z 24009KT 10SM SCT080 29/21 A2994 RMK AO2 SLP139 T02940206

More Conditions Fewer Conditions

10-Day Weather Forecast

Almanac

Astronomy

Oct. 25, 2014 Rise Set
Actual Time 6:21 AM HST 5:53 PM HST
Civil Twilight 5:59 AM HST 6:15 PM HST
Nautical Twilight 5:33 AM HST 6:41 PM HST
Astronomical Twilight 5:07 AM HST 7:07 PM HST
Moon 8:01 AM HST 7:36 PM HST
Length of Visible Light 12h 16m
Length of Day
11h 31m
Tomorrow will be 1m 0s shorter.
Waxing Crescent, 5% of the Moon is Illuminated
Today
Waxing Crescent
Oct 30
First Quarter
Nov 6
Full
Nov 14
Last Quarter
Nov 22
New

Today's Extremes

State Highs State Lows

Community

WunderPhotos

Upload Photos

1,765,034 photos uploaded!

Nearby

Snow Depth

Station Depth Elevation
No new snow has been reported.

Earthquake Activity

City Distance Mag. Time & Date
No recent earthquake activity has been reported nearby.
Minimum magnitude displayed is 2.5.

Coastal Water Temperatures

Place Temperature
No Stations Reporting

Nearby Weather Stations